Time;durP1;ratioP1;P1;durP2;ratioP2;P2;SDS_P1;SDS_P2;PMS_P1;PMS_P2;Temp;Humidity;BMP_temperature;BMP_pressure;BME280_temperature;BME280_humidity;BME280_pressure;Samples;Min_cycle;Max_cycle;Signal;HPM_P1;HPM_P2
2023/01/03 00:01:47;;;;;;;3.00;2.10;;;11.10;99.90;;;;;;5065636;28;20029;-56
2023/01/03 00:04:12;;;;;;;3.45;1.92;;;11.10;99.90;;;;;;5065571;28;20040;-56
2023/01/03 00:06:42;;;;;;;6.15;2.33;;;11.10;99.90;;;;;;5066883;28;20029;-56
2023/01/03 00:09:08;;;;;;;3.88;2.45;;;11.20;99.90;;;;;;5065349;28;20410;-56
2023/01/03 00:14:23;;;;;;;4.10;2.10;;;11.10;99.90;;;;;;5065123;28;20032;-56
2023/01/03 00:16:50;;;;;;;2.35;1.90;;;11.10;99.90;;;;;;5048844;28;20071;-56
2023/01/03 00:19:15;;;;;;;3.55;2.00;;;11.10;99.90;;;;;;5065559;28;20035;-56
2023/01/03 00:21:41;;;;;;;2.95;2.10;;;11.10;99.90;;;;;;5065473;28;20025;-56
2023/01/03 00:24:07;;;;;;;3.15;1.92;;;11.10;99.90;;;;;;5065258;28;20453;-56
2023/01/03 00:26:32;;;;;;;4.07;1.83;;;11.10;99.90;;;;;;5065188;28;20448;-56
2023/01/03 00:28:58;;;;;;;4.53;2.03;;;11.10;99.90;;;;;;5065105;28;20085;-56
2023/01/03 00:31:24;;;;;;;2.78;1.70;;;11.10;99.90;;;;;;5064910;28;20103;-56
2023/01/03 00:33:49;;;;;;;2.65;2.10;;;11.10;99.90;;;;;;5065152;28;20032;-56
2023/01/03 00:36:15;;;;;;;3.35;1.80;;;11.10;99.90;;;;;;5065035;28;20033;-56
2023/01/03 00:38:40;;;;;;;4.90;2.38;;;11.10;99.90;;;;;;5066400;28;20029;-56
2023/01/03 00:41:11;;;;;;;5.20;2.00;;;11.10;99.90;;;;;;5064876;28;20025;-56
2023/01/03 00:43:37;;;;;;;3.00;1.80;;;11.10;99.90;;;;;;5064801;28;20025;-56
2023/01/03 00:46:03;;;;;;;3.95;2.20;;;11.10;99.90;;;;;;5066155;28;20055;-56
2023/01/03 00:48:29;;;;;;;3.67;1.75;;;11.10;99.90;;;;;;5065952;28;20037;-56
2023/01/03 00:50:54;;;;;;;2.13;1.67;;;11.00;99.90;;;;;;5048055;28;20442;-56
2023/01/03 00:53:20;;;;;;;2.65;1.70;;;11.10;99.90;;;;;;5064481;28;20037;-56
2023/01/03 00:55:46;;;;;;;2.85;1.92;;;11.10;99.90;;;;;;5064436;28;20084;-56
2023/01/03 00:58:11;;;;;;;3.30;1.95;;;11.10;99.90;;;;;;5064548;28;20076;-57
2023/01/03 01:00:37;;;;;;;2.58;1.73;;;11.10;99.90;;;;;;5064314;28;20084;-56
2023/01/03 01:03:02;;;;;;;2.00;1.52;;;11.10;99.90;;;;;;5047634;28;20025;-56
2023/01/03 01:05:29;;;;;;;5.20;1.88;;;11.10;99.90;;;;;;5065756;28;20140;-56
2023/01/03 01:07:54;;;;;;;3.30;1.88;;;11.00;99.90;;;;;;5064935;28;20028;-55
2023/01/03 01:10:20;;;;;;;2.40;1.80;;;11.00;99.90;;;;;;5065393;28;20037;-56
2023/01/03 01:12:46;;;;;;;3.70;2.22;;;11.00;99.90;;;;;;5064907;28;20063;-56
2023/01/03 01:15:11;;;;;;;3.00;1.70;;;11.00;99.90;;;;;;5064045;28;20052;-56
2023/01/03 01:17:37;;;;;;;2.85;1.55;;;11.00;99.90;;;;;;5064234;28;20061;-56
2023/01/03 01:20:04;;;;;;;1.83;1.58;;;11.00;99.90;;;;;;5064155;28;20029;-56
2023/01/03 01:22:29;;;;;;;3.08;1.60;;;11.00;99.90;;;;;;5064141;28;20100;-56
2023/01/03 01:24:55;;;;;;;3.15;1.73;;;11.00;99.90;;;;;;5065517;28;20627;-56
2023/01/03 01:27:20;;;;;;;2.63;1.35;;;11.00;99.90;;;;;;5063280;28;20142;-56
2023/01/03 01:29:46;;;;;;;2.15;1.40;;;11.00;99.90;;;;;;5065359;28;20033;-56
2023/01/03 01:32:12;;;;;;;3.63;1.83;;;11.00;99.90;;;;;;5063867;28;20043;-56
2023/01/03 01:34:37;;;;;;;2.40;1.67;;;11.00;99.90;;;;;;5063748;28;20054;-56
2023/01/03 01:37:03;;;;;;;2.42;1.63;;;11.00;99.90;;;;;;5063768;28;20064;-56
2023/01/03 01:39:28;;;;;;;3.08;1.75;;;11.00;99.90;;;;;;5065243;28;20036;-56
2023/01/03 01:44:51;;;;;;;2.60;1.48;;;10.90;99.90;;;;;;5065090;28;20047;-56
2023/01/03 01:47:47;;;;;;;3.75;2.00;;;10.90;99.90;;;;;;5063725;28;20107;-56
2023/01/03 01:50:15;;;;;;;3.28;1.80;;;10.90;99.90;;;;;;5063624;28;20143;-56
2023/01/03 01:53:02;;;;;;;3.80;1.98;;;10.90;99.90;;;;;;5063847;28;20105;-56
2023/01/03 01:55:47;;;;;;;2.28;1.40;;;10.90;99.90;;;;;;5063699;28;20033;-56
2023/01/03 01:58:12;;;;;;;1.73;1.33;;;10.90;99.90;;;;;;5064811;28;20017;-56
2023/01/03 02:00:38;;;;;;;2.60;1.42;;;10.90;99.90;;;;;;5046779;28;20054;-56
2023/01/03 02:03:04;;;;;;;3.25;1.60;;;10.90;99.90;;;;;;5063488;28;20021;-56
2023/01/03 02:05:30;;;;;;;2.83;1.73;;;10.90;99.90;;;;;;5063477;28;20091;-57
2023/01/03 02:07:56;;;;;;;2.20;1.30;;;10.90;99.90;;;;;;5063270;28;20503;-56
2023/01/03 02:10:50;;;;;;;2.30;1.85;;;10.90;99.90;;;;;;5046722;28;20033;-56
2023/01/03 02:13:30;;;;;;;3.88;1.77;;;10.90;99.90;;;;;;5061903;28;20069;-56
2023/01/03 02:16:33;;;;;;;2.60;1.40;;;10.90;99.90;;;;;;5063417;28;20033;-57
2023/01/03 02:19:43;;;;;;;2.97;1.80;;;10.90;99.90;;;;;;5059051;28;20088;-56
2023/01/03 02:22:48;;;;;;;1.95;1.30;;;10.80;99.90;;;;;;5059020;28;20056;-56
2023/01/03 02:25:35;;;;;;;2.42;1.70;;;10.90;99.90;;;;;;5063561;28;20515;-56
2023/01/03 02:28:22;;;;;;;2.60;1.65;;;10.80;99.90;;;;;;5063348;28;20063;-56
2023/01/03 02:30:56;;;;;;;2.63;1.50;;;10.90;99.90;;;;;;5063348;28;20446;-56
2023/01/03 02:33:41;;;;;;;3.05;1.67;;;10.80;99.90;;;;;;5063152;28;20033;-56
2023/01/03 02:36:10;;;;;;;3.10;1.40;;;10.80;99.90;;;;;;5064557;28;20033;-56
2023/01/03 02:39:07;;;;;;;2.45;1.40;;;10.80;99.90;;;;;;5067152;28;20084;-56
2023/01/03 02:41:45;;;;;;;2.70;1.45;;;10.80;99.90;;;;;;5067612;28;20028;-56
2023/01/03 02:44:17;;;;;;;2.67;1.35;;;10.80;99.90;;;;;;5068137;28;20025;-56
2023/01/03 02:46:48;;;;;;;2.92;1.63;;;10.80;99.90;;;;;;5067149;28;20372;-56
2023/01/03 02:49:33;;;;;;;4.38;1.90;;;10.80;99.90;;;;;;5066897;28;20025;-56
2023/01/03 02:52:04;;;;;;;4.40;1.70;;;10.80;99.90;;;;;;5068163;28;20033;-56
2023/01/03 02:54:57;;;;;;;2.03;1.38;;;10.80;99.90;;;;;;5066826;28;20037;-56
2023/01/03 02:57:32;;;;;;;2.33;1.67;;;10.80;99.90;;;;;;5065772;28;20079;-56
2023/01/03 03:00:00;;;;;;;2.45;1.45;;;10.80;99.90;;;;;;5067151;28;20055;-56
2023/01/03 03:02:31;;;;;;;5.00;1.55;;;10.80;99.90;;;;;;5066626;28;20342;-56
2023/01/03 03:04:56;;;;;;;2.10;1.48;;;10.80;99.90;;;;;;5066917;28;20037;-56
2023/01/03 03:07:31;;;;;;;1.73;1.25;;;10.80;99.90;;;;;;5066718;28;20075;-56
2023/01/03 03:15:35;;;;;;;4.25;1.75;;;10.70;99.90;;;;;;5066838;28;20071;-56
2023/01/03 03:18:10;;;;;;;1.70;1.20;;;10.70;99.90;;;;;;5066985;28;20104;-56
2023/01/03 03:26:10;;;;;;;2.58;1.48;;;10.70;99.90;;;;;;5066545;28;20478;-56
2023/01/03 03:28:36;;;;;;;1.52;1.30;;;10.80;99.90;;;;;;5066192;28;20476;-56
2023/01/03 03:31:18;;;;;;;1.90;1.15;;;10.80;99.90;;;;;;5066335;28;20038;-56
2023/01/03 03:33:55;;;;;;;1.30;1.20;;;10.70;99.90;;;;;;5066215;28;20087;-56
2023/01/03 03:36:32;;;;;;;2.58;1.38;;;10.70;99.90;;;;;;5066140;28;20033;-56
2023/01/03 03:38:58;;;;;;;1.65;1.40;;;10.70;99.90;;;;;;5066107;28;20048;-56
2023/01/03 03:47:47;;;;;;;1.83;1.30;;;10.70;99.90;;;;;;5066102;28;20083;-56
2023/01/03 03:50:36;;;;;;;1.58;1.23;;;10.70;99.90;;;;;;5064941;28;20056;-56
2023/01/03 03:53:04;;;;;;;1.65;1.23;;;10.70;99.90;;;;;;5066062;28;20063;-56
2023/01/03 03:55:41;;;;;;;2.00;1.23;;;10.70;99.90;;;;;;5065525;28;20067;-56
2023/01/03 03:58:37;;;;;;;1.83;1.30;;;10.70;99.90;;;;;;5065877;28;20048;-56
2023/01/03 04:01:02;;;;;;;1.80;1.20;;;10.70;99.90;;;;;;5064666;28;20037;-56
2023/01/03 04:03:28;;;;;;;2.20;1.23;;;10.70;99.90;;;;;;5065390;28;20321;-56
2023/01/03 04:05:59;;;;;;;2.03;1.40;;;10.70;99.90;;;;;;5048850;28;20025;-56
2023/01/03 04:08:25;;;;;;;1.33;1.23;;;10.70;99.90;;;;;;5065510;28;20033;-56
2023/01/03 04:10:50;;;;;;;2.72;1.50;;;10.70;99.90;;;;;;5048744;28;20021;-56
2023/01/03 04:13:16;;;;;;;1.45;1.08;;;10.60;99.90;;;;;;5065375;28;20044;-56
2023/01/03 04:15:41;;;;;;;2.65;1.25;;;10.70;99.90;;;;;;5065430;28;20499;-56
2023/01/03 04:18:07;;;;;;;1.88;1.20;;;10.60;99.90;;;;;;5065542;28;20047;-56
2023/01/03 04:20:32;;;;;;;1.70;1.30;;;10.60;99.90;;;;;;5065381;28;20052;-56
2023/01/03 04:22:58;;;;;;;1.52;1.20;;;10.60;99.90;;;;;;5065171;28;20028;-56
2023/01/03 04:25:24;;;;;;;3.28;1.58;;;10.60;99.90;;;;;;5066448;28;20029;-56
2023/01/03 04:27:49;;;;;;;2.25;1.40;;;10.60;99.90;;;;;;5065137;28;20107;-56
2023/01/03 04:30:15;;;;;;;2.50;1.40;;;10.60;99.90;;;;;;5065192;28;20028;-56
2023/01/03 04:32:40;;;;;;;1.67;1.30;;;10.60;99.90;;;;;;5066233;28;20098;-56
2023/01/03 04:35:06;;;;;;;2.05;1.48;;;10.60;99.90;;;;;;5066481;28;20091;-56
2023/01/03 04:37:32;;;;;;;1.60;1.30;;;10.60;99.90;;;;;;5065124;28;20035;-56
2023/01/03 04:39:57;;;;;;;1.42;1.10;;;10.60;99.90;;;;;;5064756;28;20028;-56
2023/01/03 04:45:08;;;;;;;1.67;1.15;;;10.60;99.90;;;;;;5064667;28;20079;-56
2023/01/03 04:47:33;;;;;;;2.10;1.30;;;10.60;99.90;;;;;;5064558;28;20051;-56
2023/01/03 04:49:59;;;;;;;1.30;1.20;;;10.60;99.90;;;;;;5064797;28;20432;-56
2023/01/03 04:52:24;;;;;;;1.10;1.00;;;10.60;99.90;;;;;;5065819;28;20037;-56
2023/01/03 04:54:50;;;;;;;2.35;1.27;;;10.60;99.90;;;;;;5066188;28;20056;-56
2023/01/03 04:57:15;;;;;;;1.17;0.90;;;10.60;99.90;;;;;;5065896;28;20121;-56
2023/01/03 04:59:41;;;;;;;1.40;1.05;;;10.60;99.90;;;;;;5065971;28;20029;-56
2023/01/03 05:02:06;;;;;;;1.35;1.08;;;10.60;99.90;;;;;;5047773;28;20025;-56
2023/01/03 05:04:32;;;;;;;2.42;1.45;;;10.60;99.90;;;;;;5064435;28;20037;-56
2023/01/03 05:06:57;;;;;;;1.30;1.08;;;10.60;99.90;;;;;;5064462;28;20079;-56
2023/01/03 05:09:25;;;;;;;1.20;1.10;;;10.50;99.90;;;;;;5065712;28;20037;-56
2023/01/03 05:11:51;;;;;;;2.50;1.10;;;10.50;99.90;;;;;;5064304;28;20099;-56
2023/01/03 05:14:16;;;;;;;1.70;1.20;;;10.50;99.90;;;;;;5065533;28;20393;-56
2023/01/03 05:16:42;;;;;;;1.67;1.13;;;10.50;99.90;;;;;;5065769;28;20017;-56
2023/01/03 05:19:07;;;;;;;1.83;1.20;;;10.50;99.90;;;;;;5064082;28;20032;-56
2023/01/03 05:27:02;;;;;;;1.25;0.90;;;10.50;99.90;;;;;;5064449;28;20460;-56
2023/01/03 05:29:27;;;;;;;1.27;1.00;;;10.50;99.90;;;;;;5064564;28;20036;-56
2023/01/03 05:31:53;;;;;;;2.20;1.20;;;10.50;99.90;;;;;;5066157;28;20029;-56
2023/01/03 05:34:18;;;;;;;1.88;1.17;;;10.50;99.90;;;;;;5046978;28;20544;-56
2023/01/03 05:36:44;;;;;;;1.45;0.90;;;10.50;99.90;;;;;;5063769;28;20470;-56
2023/01/03 05:39:10;;;;;;;2.53;1.35;;;10.50;99.90;;;;;;5065092;28;20037;-56
2023/01/03 05:44:19;;;;;;;1.30;1.10;;;10.50;99.90;;;;;;5064787;28;20121;-57
2023/01/03 05:46:45;;;;;;;1.42;1.05;;;10.50;99.90;;;;;;5063455;28;20021;-56
2023/01/03 05:49:10;;;;;;;1.30;1.20;;;10.50;99.90;;;;;;5063528;28;20022;-56
2023/01/03 05:51:36;;;;;;;1.15;1.00;;;10.50;99.90;;;;;;5063605;28;20021;-56
2023/01/03 05:54:01;;;;;;;1.42;1.10;;;10.50;99.90;;;;;;5063615;28;20158;-56
2023/01/03 05:56:27;;;;;;;1.00;0.90;;;10.50;99.90;;;;;;5063665;28;20036;-56
2023/01/03 05:58:52;;;;;;;1.52;1.20;;;10.40;99.90;;;;;;5064769;28;20044;-56
2023/01/03 06:01:18;;;;;;;1.05;0.82;;;10.50;99.90;;;;;;5046820;28;20060;-56
2023/01/03 06:03:45;;;;;;;1.73;1.10;;;10.50;99.90;;;;;;5064669;28;20053;-56
2023/01/03 06:06:11;;;;;;;1.30;1.00;;;10.40;99.90;;;;;;5064881;28;20025;-56
2023/01/03 06:08:37;;;;;;;1.67;1.00;;;10.50;99.90;;;;;;5063374;28;20476;-56
2023/01/03 06:11:10;;;;;;;1.45;1.15;;;10.50;99.90;;;;;;5063520;28;20031;-57
2023/01/03 06:13:36;;;;;;;3.00;1.33;;;10.50;99.90;;;;;;5062825;28;20029;-56
2023/01/03 06:18:50;;;;;;;1.10;1.00;;;10.40;99.90;;;;;;5063441;28;20036;-56
2023/01/03 06:21:15;;;;;;;1.33;1.08;;;10.50;99.90;;;;;;5064675;28;20052;-56
2023/01/03 06:23:41;;;;;;;1.10;1.00;;;10.40;99.90;;;;;;5063248;28;20033;-56
2023/01/03 06:26:07;;;;;;;1.75;1.25;;;10.40;99.90;;;;;;5063289;28;20044;-57
2023/01/03 06:28:32;;;;;;;1.60;1.08;;;10.40;99.90;;;;;;5064569;28;20056;-56
2023/01/03 06:30:58;;;;;;;1.17;1.00;;;10.50;99.90;;;;;;5046417;28;20032;-56
2023/01/03 06:33:23;;;;;;;1.65;1.13;;;10.40;99.90;;;;;;5064477;28;20044;-56
2023/01/03 06:35:49;;;;;;;1.55;1.20;;;10.40;99.90;;;;;;5062944;28;20033;-56
2023/01/03 06:38:14;;;;;;;1.80;1.20;;;10.40;99.90;;;;;;5064499;28;20041;-56
2023/01/03 06:40:49;;;;;;;1.60;0.98;;;10.40;99.90;;;;;;5064519;28;20077;-56
2023/01/03 06:43:14;;;;;;;1.20;1.00;;;10.40;99.90;;;;;;5063029;28;20047;-56
2023/01/03 06:54:22;;;;;;;1.40;0.88;;;10.40;99.90;;;;;;5063001;28;20040;-56
2023/01/03 06:56:48;;;;;;;;;;;10.30;99.90;;;;;;5064766;28;20075;-56
2023/01/03 06:59:13;;;;;;;1.73;1.13;;;10.40;99.90;;;;;;5064364;28;19909;-56
2023/01/03 07:01:39;;;;;;;0.88;0.80;;;10.30;99.90;;;;;;5062818;28;20083;-56
2023/01/03 07:04:05;;;;;;;1.17;0.85;;;10.30;99.90;;;;;;5062741;28;20087;-56
2023/01/03 07:06:30;;;;;;;2.10;1.23;;;10.40;99.90;;;;;;5063020;28;20033;-56
2023/01/03 07:08:56;;;;;;;1.35;1.10;;;10.30;99.90;;;;;;5062737;28;20037;-56
2023/01/03 07:11:24;;;;;;;1.58;1.13;;;10.30;99.90;;;;;;5046075;28;20128;-56
2023/01/03 07:13:59;;;;;;;1.48;0.95;;;10.30;99.90;;;;;;5062723;28;20040;-56
2023/01/03 07:16:31;;;;;;;1.92;1.00;;;10.30;99.90;;;;;;5062829;28;20025;-56
2023/01/03 07:18:56;;;;;;;2.08;1.20;;;10.30;99.90;;;;;;5062833;28;20120;-56
2023/01/03 07:21:23;;;;;;;1.55;0.95;;;10.30;99.90;;;;;;5062802;28;20135;-56
2023/01/03 07:23:49;;;;;;;1.10;0.90;;;10.30;99.90;;;;;;5062770;28;20143;-56
2023/01/03 07:26:14;;;;;;;1.00;0.70;;;10.30;99.90;;;;;;5067501;28;20096;-56
2023/01/03 07:28:40;;;;;;;1.63;1.20;;;10.30;99.90;;;;;;5067197;28;20055;-56
2023/01/03 07:31:05;;;;;;;1.13;1.02;;;10.40;99.90;;;;;;5066124;28;20039;-56
2023/01/03 07:33:31;;;;;;;2.20;1.40;;;10.30;99.90;;;;;;5065238;28;20063;-56
2023/01/03 07:36:05;;;;;;;1.65;1.40;;;10.30;99.90;;;;;;5066169;28;20123;-56
2023/01/03 07:38:30;;;;;;;1.25;1.08;;;10.30;99.90;;;;;;5067713;28;20040;-56
2023/01/03 07:40:59;;;;;;;1.30;0.98;;;10.30;99.90;;;;;;5049266;28;20024;-56
2023/01/03 07:43:37;;;;;;;1.45;1.10;;;10.30;99.90;;;;;;5067403;28;20528;-56
2023/01/03 07:46:06;;;;;;;1.75;1.27;;;10.30;99.90;;;;;;5066192;28;20033;-56
2023/01/03 07:48:33;;;;;;;3.05;1.20;;;10.30;99.90;;;;;;5067394;28;20093;-56
2023/01/03 07:50:58;;;;;;;2.50;1.20;;;10.30;99.90;;;;;;5067216;28;20029;-56
2023/01/03 07:53:24;;;;;;;1.42;1.13;;;10.30;99.90;;;;;;5066566;28;20040;-56
2023/01/03 07:55:49;;;;;;;1.60;1.15;;;10.30;99.90;;;;;;5065555;28;20082;-56
2023/01/03 07:58:15;;;;;;;1.30;1.13;;;10.30;99.90;;;;;;5064833;28;20025;-56
2023/01/03 08:00:40;;;;;;;1.20;1.10;;;10.30;99.90;;;;;;5065545;28;20112;-56
2023/01/03 08:03:06;;;;;;;1.40;1.10;;;10.30;99.90;;;;;;5082174;28;20029;-56
2023/01/03 08:05:33;;;;;;;1.20;1.00;;;10.30;99.90;;;;;;5065832;28;20033;-56
2023/01/03 08:07:58;;;;;;;1.50;1.20;;;10.30;99.90;;;;;;5065709;28;20025;-56
2023/01/03 08:13:17;;;;;;;1.13;1.00;;;10.30;99.90;;;;;;5065973;28;20036;-56
2023/01/03 08:15:44;;;;;;;1.20;1.00;;;10.30;99.90;;;;;;5065724;28;20059;-56
2023/01/03 08:18:11;;;;;;;2.17;1.30;;;10.30;99.90;;;;;;5066225;28;20033;-56
2023/01/03 08:20:37;;;;;;;1.77;1.20;;;10.30;99.90;;;;;;5065392;28;20033;-56
2023/01/03 08:23:02;;;;;;;1.98;1.10;;;10.30;99.90;;;;;;5065060;28;20021;-56
2023/01/03 08:25:28;;;;;;;1.67;1.23;;;10.40;99.90;;;;;;5065486;28;20373;-56
2023/01/03 08:27:56;;;;;;;2.38;1.27;;;10.40;99.90;;;;;;5065379;28;20059;-56
2023/01/03 08:30:22;;;;;;;3.38;1.13;;;10.40;99.90;;;;;;5065184;28;20044;-56
2023/01/03 08:32:48;;;;;;;3.22;1.33;;;10.40;99.90;;;;;;5048514;28;20025;-56
2023/01/03 08:35:14;;;;;;;3.38;1.30;;;10.40;99.90;;;;;;5064591;28;20078;-56
2023/01/03 08:37:41;;;;;;;5.82;1.40;;;10.40;99.90;;;;;;5064743;28;20025;-56
2023/01/03 08:40:08;;;;;;;2.22;1.25;;;10.40;99.90;;;;;;5064767;28;20393;-56
2023/01/03 08:42:33;;;;;;;6.68;1.52;;;10.40;99.90;;;;;;5080635;28;20082;-56
2023/01/03 08:45:01;;;;;;;4.65;1.50;;;10.40;99.90;;;;;;5103356;28;20035;-55
2023/01/03 08:47:27;;;;;;;4.32;1.52;;;10.40;99.90;;;;;;5104219;28;20044;-55
2023/01/03 08:49:54;;;;;;;10.90;2.03;;;10.50;99.90;;;;;;5104208;28;20055;-56
2023/01/03 08:52:19;;;;;;;16.33;2.85;;;10.40;99.90;;;;;;5104108;28;20028;-56
2023/01/03 08:54:45;;;;;;;6.55;1.88;;;10.50;99.90;;;;;;5105581;28;20042;-56
2023/01/03 08:57:10;;;;;;;53.75;4.80;;;10.50;99.90;;;;;;5105659;28;20020;-56
2023/01/03 08:59:36;;;;;;;23.08;3.83;;;10.50;99.90;;;;;;5104586;28;20035;-56
2023/01/03 09:02:01;;;;;;;26.05;3.00;;;10.50;99.90;;;;;;5104685;28;20020;-56
2023/01/03 09:04:27;;;;;;;16.67;2.58;;;10.50;99.90;;;;;;5104214;28;20032;-56
2023/01/03 09:06:52;;;;;;;28.75;4.68;;;10.50;99.90;;;;;;5105815;28;20167;-56
2023/01/03 09:09:18;;;;;;;34.70;3.35;;;10.60;99.90;;;;;;5105495;28;20038;-56
2023/01/03 09:11:43;;;;;;;27.88;3.50;;;10.60;99.90;;;;;;5105655;28;20091;-56
2023/01/03 09:14:09;;;;;;;40.78;4.32;;;10.60;99.90;;;;;;5105487;28;20046;-56
2023/01/03 09:16:35;;;;;;;18.35;3.28;;;10.60;99.90;;;;;;5105333;28;20032;-56
2023/01/03 09:19:01;;;;;;;37.17;3.83;;;10.60;99.90;;;;;;5103998;28;20039;-56
2023/01/03 09:21:28;;;;;;;36.47;3.30;;;10.60;99.90;;;;;;5104129;28;20103;-56
2023/01/03 09:23:53;;;;;;;41.08;4.65;;;10.60;99.90;;;;;;5103860;28;20031;-56
2023/01/03 09:26:19;;;;;;;32.63;4.47;;;10.60;99.90;;;;;;5104012;28;20032;-56
2023/01/03 09:28:45;;;;;;;40.35;4.30;;;10.60;99.90;;;;;;5103933;28;20028;-56
2023/01/03 09:31:10;;;;;;;23.10;4.40;;;10.70;99.90;;;;;;5104909;28;20032;-56
2023/01/03 09:33:36;;;;;;;33.92;4.18;;;10.70;99.90;;;;;;5103569;28;20051;-56
2023/01/03 09:36:01;;;;;;;50.22;5.32;;;10.70;99.90;;;;;;5103435;28;20052;-56
2023/01/03 09:38:27;;;;;;;49.15;6.25;;;10.70;99.90;;;;;;5103537;28;20024;-56
2023/01/03 09:41:04;;;;;;;38.55;4.68;;;10.70;99.90;;;;;;5103771;28;20042;-56
2023/01/03 09:43:41;;;;;;;50.33;4.78;;;10.70;99.90;;;;;;5103703;28;20073;-57
2023/01/03 09:46:11;;;;;;;42.75;5.53;;;10.80;99.90;;;;;;5104174;28;20091;-56
2023/01/03 09:48:38;;;;;;;65.32;6.68;;;10.80;99.90;;;;;;5102987;28;20040;-56
2023/01/03 10:03:42;;;;;;;61.92;7.90;;;10.80;99.90;;;;;;5103957;28;20028;-56
2023/01/03 10:05:34;;;;;;;70.82;8.63;;;10.90;99.90;;;;;;5105089;28;20047;-56
2023/01/03 10:08:14;;;;;;;76.55;8.75;;;10.90;99.90;;;;;;5103529;28;20020;-56
2023/01/03 10:10:58;;;;;;;67.22;9.07;;;10.90;99.90;;;;;;5087898;28;20033;-56
2023/01/03 10:13:42;;;;;;;86.30;10.35;;;10.90;99.90;;;;;;5084472;28;20460;-56
2023/01/03 10:16:17;;;;;;;90.75;9.77;;;11.00;99.90;;;;;;5084378;28;20111;-56
2023/01/03 10:19:15;;;;;;;96.70;10.17;;;10.90;99.90;;;;;;5083039;28;20078;-56
2023/01/03 10:21:49;;;;;;;88.47;10.38;;;11.00;99.90;;;;;;5084334;28;20024;-56
2023/01/03 10:24:17;;;;;;;143.50;14.30;;;11.00;99.90;;;;;;5082576;28;20032;-56
2023/01/03 10:26:42;;;;;;;118.88;12.57;;;11.00;99.90;;;;;;5082980;28;20036;-56
2023/01/03 10:29:08;;;;;;;122.90;12.73;;;11.20;99.90;;;;;;5084291;28;20067;-56
2023/01/03 10:31:59;;;;;;;123.05;13.70;;;11.10;99.90;;;;;;5082832;28;20031;-56
2023/01/03 10:34:24;;;;;;;166.38;14.68;;;11.10;99.90;;;;;;5084291;28;20033;-56
2023/01/03 10:36:50;;;;;;;145.75;13.95;;;11.10;99.90;;;;;;5084347;28;20031;-56
2023/01/03 10:39:15;;;;;;;110.55;11.88;;;11.20;99.90;;;;;;5084211;28;20037;-56
2023/01/03 10:41:47;;;;;;;149.73;15.73;;;11.20;99.90;;;;;;5082725;28;20020;-56
2023/01/03 10:44:28;;;;;;;130.43;15.60;;;11.20;99.90;;;;;;5091504;28;20028;-56
2023/01/03 10:46:55;;;;;;;170.02;15.48;;;11.20;99.90;;;;;;5098549;28;20020;-56
2023/01/03 10:49:22;;;;;;;138.98;14.02;;;11.20;99.90;;;;;;5089580;28;20028;-56
2023/01/03 10:52:00;;;;;;;132.27;16.15;;;11.20;99.90;;;;;;5066181;28;20021;-56
2023/01/03 10:54:27;;;;;;;137.18;16.35;;;11.20;99.90;;;;;;5100059;28;20032;-56
2023/01/03 10:56:53;;;;;;;134.73;16.58;;;11.20;99.90;;;;;;5087577;28;20063;-56
2023/01/03 10:59:22;;;;;;;168.23;17.08;;;11.30;99.90;;;;;;5088760;28;20372;-56
2023/01/03 11:01:57;;;;;;;158.15;18.25;;;11.30;99.90;;;;;;5089764;28;20020;-56
2023/01/03 11:04:23;;;;;;;167.32;16.33;;;11.30;99.90;;;;;;5103258;28;20028;-56
2023/01/03 11:07:00;;;;;;;166.90;17.90;;;11.40;99.90;;;;;;5097346;28;20040;-56
2023/01/03 11:09:51;;;;;;;188.52;17.92;;;11.40;99.90;;;;;;5097283;28;20029;-56
2023/01/03 11:12:16;;;;;;;160.93;19.50;;;11.40;99.90;;;;;;5090843;28;20036;-56
2023/01/03 11:14:50;;;;;;;149.20;17.40;;;11.40;99.90;;;;;;5098329;28;20085;-56
2023/01/03 11:17:16;;;;;;;173.48;18.27;;;11.40;99.90;;;;;;5104846;28;20093;-56
2023/01/03 11:19:41;;;;;;;184.68;19.60;;;11.40;99.90;;;;;;5088773;28;20028;-56
2023/01/03 11:22:19;;;;;;;187.90;20.60;;;11.40;99.90;;;;;;5087181;28;20473;-56
2023/01/03 11:25:01;;;;;;;189.05;20.52;;;11.50;99.90;;;;;;5081971;28;20047;-56
2023/01/03 11:27:35;;;;;;;163.02;18.08;;;11.50;99.90;;;;;;5095893;28;20460;-56
2023/01/03 11:30:12;;;;;;;150.30;18.17;;;11.50;99.90;;;;;;5094510;28;20050;-56
2023/01/03 11:32:47;;;;;;;166.68;19.67;;;11.50;99.90;;;;;;5084915;28;20055;-56
2023/01/03 11:35:27;;;;;;;198.55;21.60;;;11.60;99.90;;;;;;5096161;28;20031;-56
2023/01/03 11:38:05;;;;;;;220.15;23.65;;;11.60;99.90;;;;;;5097156;28;20035;-56
2023/01/03 11:40:51;;;;;;;263.08;26.45;;;11.60;99.90;;;;;;5082109;28;20086;-56
2023/01/03 11:43:32;;;;;;;219.65;24.20;;;11.60;99.90;;;;;;5106870;28;20095;-56
2023/01/03 11:46:09;;;;;;;236.05;23.92;;;11.60;99.90;;;;;;5096090;28;20104;-56
2023/01/03 11:48:52;;;;;;;198.20;21.88;;;11.60;99.90;;;;;;5095071;28;20054;-56
2023/01/03 11:51:45;;;;;;;249.40;25.65;;;11.70;99.90;;;;;;5074715;28;20054;-56
2023/01/03 11:54:19;;;;;;;254.15;26.50;;;11.70;99.90;;;;;;5099815;28;20032;-56
2023/01/03 11:56:45;;;;;;;234.18;24.50;;;11.70;99.90;;;;;;5080490;28;20370;-56
2023/01/03 11:59:30;;;;;;;245.88;26.90;;;11.80;99.90;;;;;;5077337;28;20056;-56
2023/01/03 12:02:16;;;;;;;212.13;25.17;;;11.70;99.90;;;;;;5096988;28;20088;-56
2023/01/03 12:04:59;;;;;;;211.70;24.50;;;11.80;99.90;;;;;;5094559;28;20088;-56
2023/01/03 12:07:56;;;;;;;237.60;24.83;;;11.80;99.90;;;;;;5115834;27;20028;-56
2023/01/03 12:10:30;;;;;;;226.70;24.42;;;11.80;99.90;;;;;;5100059;28;20067;-56
2023/01/03 12:13:24;;;;;;;236.93;24.48;;;11.80;99.90;;;;;;5085389;28;20036;-56
2023/01/03 12:16:00;;;;;;;237.27;26.60;;;11.90;99.90;;;;;;5094172;28;20053;-56
2023/01/03 12:18:41;;;;;;;226.25;24.95;;;11.90;99.90;;;;;;5090306;28;20032;-56
2023/01/03 12:21:24;;;;;;;194.25;23.33;;;11.90;99.90;;;;;;5080915;28;20044;-56
2023/01/03 12:24:15;;;;;;;239.38;27.38;;;11.90;99.90;;;;;;5085273;28;20107;-56
2023/01/03 12:26:41;;;;;;;286.92;29.05;;;11.90;99.90;;;;;;5081003;28;20033;-56
2023/01/03 12:29:28;;;;;;;274.13;31.67;;;11.90;99.90;;;;;;5062354;28;20082;-56
2023/01/03 12:31:59;;;;;;;257.55;29.50;;;11.90;99.90;;;;;;5077703;28;20028;-56
2023/01/03 12:34:40;;;;;;;286.95;28.77;;;12.00;99.90;;;;;;5076974;28;20068;-56
2023/01/03 12:37:18;;;;;;;252.25;29.67;;;12.00;99.90;;;;;;5079509;28;20034;-56
2023/01/03 12:39:47;;;;;;;239.93;27.38;;;12.00;99.90;;;;;;5097990;28;20025;-56
2023/01/03 12:42:39;;;;;;;255.70;28.48;;;12.00;99.90;;;;;;5082736;28;20025;-56
2023/01/03 12:45:10;;;;;;;254.35;29.70;;;12.00;99.90;;;;;;5073494;28;20073;-56
2023/01/03 12:47:57;;;;;;;260.85;29.33;;;12.10;99.90;;;;;;5085428;28;20028;-56
2023/01/03 12:50:35;;;;;;;279.13;30.33;;;12.10;99.90;;;;;;5083799;28;20032;-56
2023/01/03 12:53:38;;;;;;;296.65;30.90;;;12.10;99.90;;;;;;5088983;28;20032;-56
2023/01/03 12:56:06;;;;;;;243.35;29.90;;;12.10;99.90;;;;;;5090138;28;20047;-56
2023/01/03 12:58:45;;;;;;;248.75;28.63;;;12.10;99.90;;;;;;5083212;28;20052;-56
2023/01/03 13:01:14;;;;;;;315.45;33.15;;;12.10;99.90;;;;;;5064794;28;20056;-56
2023/01/03 13:03:48;;;;;;;291.17;34.85;;;12.20;99.90;;;;;;5086000;28;20067;-56
2023/01/03 13:06:24;;;;;;;309.75;34.47;;;12.20;99.90;;;;;;5081222;28;20020;-56
2023/01/03 13:08:59;;;;;;;269.73;33.00;;;12.20;99.90;;;;;;5081541;28;20066;-56
2023/01/03 13:11:24;;;;;;;630.35;65.18;;;12.30;99.90;;;;;;5083563;28;20052;-56
2023/01/03 13:13:58;;;;;;;371.38;39.53;;;12.30;99.90;;;;;;5089741;28;20071;-56
2023/01/03 13:16:33;;;;;;;379.02;41.28;;;12.30;99.90;;;;;;5069762;28;20505;-56
2023/01/03 13:19:21;;;;;;;340.85;40.10;;;12.30;99.90;;;;;;5083929;28;20481;-56
2023/01/03 13:21:52;;;;;;;331.88;37.97;;;12.40;99.90;;;;;;5081670;28;20032;-56
2023/01/03 13:24:50;;;;;;;342.55;38.50;;;12.40;99.90;;;;;;5074169;28;20025;-56
2023/01/03 13:27:16;;;;;;;361.02;40.88;;;12.40;99.90;;;;;;5052555;28;20060;-56
2023/01/03 13:29:47;;;;;;;362.05;41.65;;;12.40;99.90;;;;;;5077825;28;20044;-56
2023/01/03 13:32:23;;;;;;;350.10;41.47;;;12.50;99.90;;;;;;5075142;28;20024;-56
2023/01/03 13:34:55;;;;;;;399.13;42.80;;;12.50;99.90;;;;;;5079422;28;20107;-56
2023/01/03 13:37:36;;;;;;;403.20;44.08;;;12.50;99.90;;;;;;5079284;28;20067;-56
2023/01/03 13:40:10;;;;;;;437.45;48.08;;;12.50;99.90;;;;;;5074604;28;20060;-56
2023/01/03 13:42:37;;;;;;;414.55;45.15;;;12.50;99.90;;;;;;5087494;28;20020;-56
2023/01/03 13:45:14;;;;;;;421.90;41.78;;;12.50;99.90;;;;;;5078016;28;20427;-56
2023/01/03 13:47:49;;;;;;;364.15;40.80;;;12.50;99.90;;;;;;5075027;28;20093;-56
2023/01/03 13:50:21;;;;;;;448.10;52.47;;;12.50;99.90;;;;;;5081409;28;20032;-54
2023/01/03 13:53:02;;;;;;;432.20;47.75;;;12.60;99.90;;;;;;5086758;28;20058;-56
2023/01/03 13:55:37;;;;;;;485.65;54.97;;;12.50;99.90;;;;;;5078017;28;20033;-56
2023/01/03 13:58:25;;;;;;;412.92;49.08;;;12.60;99.90;;;;;;5081718;28;20024;-56